createdAt,value
2018-09-19T00:01:04.106Z,13.40
2018-09-19T00:03:34.396Z,11.60
2018-09-19T00:06:03.811Z,14.63
2018-09-19T00:08:33.118Z,15.03
2018-09-19T00:11:02.957Z,16.40
2018-09-19T00:13:32.859Z,17.33
2018-09-19T00:16:02.821Z,19.97
2018-09-19T00:18:32.258Z,15.37
2018-09-19T00:21:01.800Z,17.30
2018-09-19T00:23:31.418Z,25.23
2018-09-19T00:26:00.930Z,15.03
2018-09-19T00:28:31.204Z,15.33
2018-09-19T00:31:00.203Z,18.23
2018-09-19T00:33:29.249Z,15.97
2018-09-19T00:35:58.260Z,20.43
2018-09-19T00:38:27.361Z,16.90
2018-09-19T00:40:56.516Z,13.50
2018-09-19T00:43:25.585Z,14.70
2018-09-19T00:45:54.609Z,18.63
2018-09-19T00:48:23.617Z,14.30
2018-09-19T00:50:52.629Z,15.30
2018-09-19T00:53:21.731Z,19.07
2018-09-19T00:55:50.698Z,18.63
2018-09-19T00:58:19.677Z,15.93
2018-09-19T01:00:49.052Z,16.87
2018-09-19T01:03:18.327Z,14.43
2018-09-19T01:05:47.658Z,14.03
2018-09-19T01:08:16.934Z,21.23
2018-09-19T01:10:46.186Z,14.30
2018-09-19T01:13:15.574Z,14.40
2018-09-19T01:15:44.643Z,11.07
2018-09-19T01:18:13.609Z,15.00
2018-09-19T01:20:42.627Z,20.07
2018-09-19T01:23:11.922Z,16.70
2018-09-19T01:25:41.105Z,19.43
2018-09-19T01:28:10.214Z,17.87
2018-09-19T01:30:39.188Z,18.60
2018-09-19T01:33:08.280Z,16.57
2018-09-19T01:35:37.412Z,15.10
2018-09-19T01:38:07.133Z,17.93
2018-09-19T01:40:36.128Z,19.77
2018-09-19T01:43:05.221Z,13.60
2018-09-19T01:45:34.251Z,14.20
2018-09-19T01:48:03.311Z,17.43
2018-09-19T01:50:32.298Z,16.47
2018-09-19T01:53:01.359Z,16.10
2018-09-19T01:55:30.365Z,15.17
2018-09-19T01:57:59.451Z,16.57
2018-09-19T02:00:28.570Z,21.60
2018-09-19T02:02:58.679Z,13.90
2018-09-19T02:05:28.195Z,15.97
2018-09-19T02:07:57.733Z,15.30
2018-09-19T02:10:27.163Z,32.87
2018-09-19T02:12:56.509Z,18.47
2018-09-19T02:15:25.961Z,13.67
2018-09-19T02:17:55.585Z,15.43
2018-09-19T02:20:24.975Z,19.27
2018-09-19T02:22:54.330Z,24.60
2018-09-19T02:25:23.786Z,15.40
2018-09-19T02:27:53.178Z,12.73
2018-09-19T02:30:22.665Z,14.87
2018-09-19T02:32:52.122Z,17.63
2018-09-19T02:35:21.701Z,22.23
2018-09-19T02:37:50.971Z,14.50
2018-09-19T02:40:20.249Z,16.80
2018-09-19T02:42:49.606Z,17.87
2018-09-19T02:45:19.400Z,14.47
2018-09-19T02:47:48.871Z,12.73
2018-09-19T02:50:18.260Z,17.20
2018-09-19T02:52:51.590Z,12.43
2018-09-19T02:55:21.135Z,19.03
2018-09-19T02:57:50.600Z,10.53
2018-09-19T03:00:20.052Z,16.60
2018-09-19T03:02:49.417Z,16.17
2018-09-19T03:05:19.289Z,12.40
2018-09-19T03:07:49.353Z,13.17
2018-09-19T03:10:18.744Z,12.00
2018-09-19T03:12:48.276Z,14.10
2018-09-19T03:15:17.359Z,17.13
2018-09-19T03:17:46.419Z,15.40
2018-09-19T03:20:15.571Z,14.87
2018-09-19T03:22:44.535Z,16.30
2018-09-19T03:25:13.861Z,14.10
2018-09-19T03:27:42.854Z,12.27
2018-09-19T03:30:11.930Z,16.20
2018-09-19T03:32:41.042Z,11.83
2018-09-19T03:35:10.296Z,18.63
2018-09-19T03:37:39.362Z,14.47
2018-09-19T03:40:08.382Z,15.00
2018-09-19T03:42:37.385Z,15.23
2018-09-19T03:45:06.855Z,18.40
2018-09-19T03:47:35.792Z,17.40
2018-09-19T03:50:05.055Z,13.67
2018-09-19T03:52:34.335Z,14.70
2018-09-19T03:55:03.350Z,16.40
2018-09-19T03:57:32.415Z,13.03
2018-09-19T04:00:01.804Z,14.83
2018-09-19T04:02:30.873Z,6.83
2018-09-19T04:04:59.927Z,5.77
2018-09-19T04:07:28.995Z,5.30
2018-09-19T04:09:58.380Z,10.40
2018-09-19T04:12:27.792Z,6.63
2018-09-19T04:14:57.437Z,8.37
2018-09-19T04:17:26.572Z,9.70
2018-09-19T04:19:55.603Z,12.63
2018-09-19T04:22:25.553Z,12.60
2018-09-19T04:24:54.628Z,12.30
2018-09-19T04:27:23.678Z,10.10
2018-09-19T04:29:52.783Z,10.97
2018-09-19T04:32:22.776Z,13.40
2018-09-19T04:34:52.313Z,9.23
2018-09-19T04:37:21.777Z,10.73
2018-09-19T04:39:51.596Z,9.47
2018-09-19T04:42:21.518Z,9.53
2018-09-19T04:44:51.590Z,12.30
2018-09-19T04:47:20.994Z,9.13
2018-09-19T04:49:50.260Z,10.90
2018-09-19T04:52:20.128Z,8.33
2018-09-19T04:54:49.328Z,11.80
2018-09-19T04:57:19.331Z,23.17
2018-09-19T04:59:48.705Z,9.07
2018-09-19T05:02:18.010Z,15.70
2018-09-19T05:04:47.253Z,8.33
2018-09-19T05:07:16.702Z,10.73
2018-09-19T05:09:46.116Z,16.23
2018-09-19T05:12:16.122Z,10.10
2018-09-19T05:14:45.626Z,18.43
2018-09-19T05:17:15.090Z,18.00
2018-09-19T05:19:44.628Z,19.10
2018-09-19T05:22:14.644Z,16.47
2018-09-19T05:24:44.910Z,9.07
2018-09-19T05:27:15.521Z,15.07
2018-09-19T05:29:45.319Z,15.00
2018-09-19T05:32:14.720Z,11.47
2018-09-19T05:34:44.078Z,9.40
2018-09-19T05:37:13.530Z,11.67
2018-09-19T05:39:42.829Z,13.47
2018-09-19T05:42:13.238Z,22.77
2018-09-19T05:44:42.647Z,10.13
2018-09-19T05:47:12.145Z,14.27
2018-09-19T05:49:41.874Z,10.47
2018-09-19T05:52:11.285Z,9.87
2018-09-19T05:54:40.764Z,13.93
2018-09-19T05:57:10.268Z,16.70
2018-09-19T05:59:39.640Z,12.93
2018-09-19T06:02:08.999Z,10.83
2018-09-19T06:04:38.605Z,20.17
2018-09-19T06:07:08.358Z,11.17
2018-09-19T06:09:37.521Z,10.20
2018-09-19T06:12:06.904Z,8.70
2018-09-19T06:14:36.494Z,18.40
2018-09-19T06:17:05.861Z,17.90
2018-09-19T06:19:35.270Z,8.53
2018-09-19T06:22:04.679Z,13.03
2018-09-19T06:24:33.893Z,22.83
2018-09-19T06:27:04.114Z,10.23
2018-09-19T06:29:33.390Z,17.23
2018-09-19T06:32:02.664Z,19.70
2018-09-19T06:34:32.707Z,10.50
2018-09-19T06:37:02.184Z,11.73
2018-09-19T06:39:31.572Z,21.67
2018-09-19T06:42:01.087Z,15.87
2018-09-19T06:44:30.443Z,13.07
2018-09-19T06:46:59.875Z,12.70
2018-09-19T06:49:29.161Z,16.97
2018-09-19T06:51:58.691Z,21.23
2018-09-19T06:54:28.131Z,24.73
2018-09-19T06:56:57.431Z,18.20
2018-09-19T06:59:26.699Z,10.17
2018-09-19T07:01:56.075Z,12.53
2018-09-19T07:04:26.169Z,12.10
2018-09-19T07:06:55.595Z,12.10
2018-09-19T07:09:25.083Z,11.10
2018-09-19T07:11:54.408Z,16.80
2018-09-19T07:14:23.925Z,10.30
2018-09-19T07:16:53.364Z,10.70
2018-09-19T07:19:22.692Z,10.20
2018-09-19T07:21:52.548Z,6.90
2018-09-19T07:24:21.800Z,13.43
2018-09-19T07:26:51.117Z,11.93
2018-09-19T07:29:20.601Z,13.23
2018-09-19T07:31:49.882Z,7.77
2018-09-19T07:34:19.280Z,7.33
2018-09-19T07:36:48.604Z,8.63
2018-09-19T07:39:17.835Z,6.40
2018-09-19T07:41:47.207Z,8.20
2018-09-19T07:44:16.493Z,12.80
2018-09-19T07:46:45.824Z,4.80
2018-09-19T07:49:15.207Z,6.53
2018-09-19T07:51:44.552Z,5.60
2018-09-19T07:54:14.019Z,8.17
2018-09-19T07:56:43.373Z,11.20
2018-09-19T07:59:13.848Z,8.57
2018-09-19T08:01:43.400Z,6.00
2018-09-19T08:04:12.835Z,11.60
2018-09-19T08:06:42.659Z,6.43
2018-09-19T08:09:12.835Z,7.70
2018-09-19T08:11:42.766Z,10.73
2018-09-19T08:14:12.229Z,4.77
2018-09-19T08:16:41.525Z,6.60
2018-09-19T08:19:10.801Z,13.90
2018-09-19T08:21:39.879Z,4.43
2018-09-19T08:24:10.178Z,5.43
2018-09-19T08:26:39.493Z,3.80
2018-09-19T08:29:08.559Z,3.47
2018-09-19T08:31:37.535Z,5.30
2018-09-19T08:34:06.563Z,4.10
2018-09-19T08:36:35.556Z,4.27
2018-09-19T08:39:06.943Z,8.90
2018-09-19T08:41:36.155Z,4.90
2018-09-19T08:44:05.589Z,4.63
2018-09-19T08:46:34.738Z,9.20
2018-09-19T08:49:03.755Z,3.80
2018-09-19T08:51:32.774Z,4.73
2018-09-19T08:54:02.269Z,6.37
2018-09-19T08:56:31.275Z,4.77
2018-09-19T08:59:00.300Z,5.87
2018-09-19T09:01:29.401Z,5.53
2018-09-19T09:03:58.585Z,4.07
2018-09-19T09:06:27.757Z,6.40
2018-09-19T09:08:56.890Z,7.27
2018-09-19T09:11:25.962Z,4.87
2018-09-19T09:13:55.077Z,4.63
2018-09-19T09:16:24.131Z,3.97
2018-09-19T09:18:53.179Z,7.43
2018-09-19T09:21:22.151Z,4.97
2018-09-19T09:23:51.194Z,4.53
2018-09-19T09:26:20.264Z,3.87
2018-09-19T09:28:49.374Z,3.10
2018-09-19T09:31:19.384Z,3.30
2018-09-19T09:33:48.412Z,3.67
2018-09-19T09:36:17.782Z,3.80
2018-09-19T09:38:47.046Z,4.17
2018-09-19T09:41:16.044Z,3.50
2018-09-19T09:43:45.099Z,4.00
2018-09-19T09:46:14.112Z,3.67
2018-09-19T09:48:43.193Z,4.87
2018-09-19T09:51:12.409Z,3.70
2018-09-19T09:53:41.759Z,3.60
2018-09-19T09:56:10.807Z,3.10
2018-09-19T09:58:39.833Z,3.67
2018-09-19T10:01:08.872Z,4.03
2018-09-19T10:03:37.848Z,2.97
2018-09-19T10:06:06.955Z,2.77
2018-09-19T10:08:35.976Z,3.33
2018-09-19T10:11:05.022Z,3.70
2018-09-19T10:13:35.051Z,11.77
2018-09-19T10:16:05.081Z,8.57
2018-09-19T10:18:34.128Z,5.10
2018-09-19T10:21:03.158Z,7.83
2018-09-19T10:23:32.207Z,3.80
2018-09-19T10:26:01.495Z,4.37
2018-09-19T10:28:30.563Z,3.23
2018-09-19T10:30:59.634Z,5.40
2018-09-19T10:33:28.726Z,6.03
2018-09-19T10:35:57.855Z,5.40
2018-09-19T10:38:27.135Z,7.30
2018-09-19T10:40:56.164Z,5.90
2018-09-19T10:43:25.132Z,4.50
2018-09-19T10:45:54.224Z,3.30
2018-09-19T10:48:23.288Z,7.80
2018-09-19T10:50:52.331Z,3.00
2018-09-19T10:53:22.019Z,6.23
2018-09-19T10:55:51.481Z,3.40
2018-09-19T10:58:21.895Z,5.97
2018-09-19T11:00:50.902Z,5.67
2018-09-19T11:03:19.937Z,3.83
2018-09-19T11:05:49.004Z,5.10
2018-09-19T11:08:18.123Z,4.83
2018-09-19T11:10:47.289Z,10.50
2018-09-19T11:13:16.364Z,11.03
2018-09-19T11:15:45.630Z,4.13
2018-09-19T11:18:14.611Z,17.03
2018-09-19T11:20:43.645Z,6.03
2018-09-19T11:23:12.717Z,4.63
2018-09-19T11:25:41.703Z,2.63
2018-09-19T11:28:10.764Z,3.13
2018-09-19T11:30:39.903Z,3.50
2018-09-19T11:33:08.905Z,3.87
2018-09-19T11:35:37.989Z,5.13
2018-09-19T11:38:06.974Z,4.50
2018-09-19T11:40:36.060Z,2.93
2018-09-19T11:43:05.057Z,5.70
2018-09-19T11:45:34.062Z,4.43
2018-09-19T11:48:03.173Z,5.07
2018-09-19T11:50:32.304Z,8.30
2018-09-19T11:53:02.154Z,3.57
2018-09-19T11:55:31.283Z,4.47
2018-09-19T11:58:00.424Z,9.50
2018-09-19T12:00:29.487Z,8.47
2018-09-19T12:02:58.583Z,6.93
2018-09-19T12:05:27.684Z,3.10
2018-09-19T12:07:56.790Z,4.37
2018-09-19T12:10:27.739Z,4.50
2018-09-19T12:12:57.083Z,4.17
2018-09-19T12:15:26.276Z,8.53
2018-09-19T12:17:55.603Z,3.30
2018-09-19T12:20:24.831Z,4.20
2018-09-19T12:22:54.085Z,3.43
2018-09-19T12:25:23.496Z,4.37
2018-09-19T12:27:52.979Z,3.43
2018-09-19T12:30:22.003Z,5.07
2018-09-19T12:32:51.109Z,4.90
2018-09-19T12:35:20.262Z,2.67
2018-09-19T12:37:49.263Z,3.63
2018-09-19T12:40:19.059Z,3.73
2018-09-19T12:42:48.697Z,4.03
2018-09-19T12:45:17.798Z,3.77
2018-09-19T12:47:48.147Z,4.27
2018-09-19T12:50:17.357Z,5.20
2018-09-19T12:52:46.955Z,6.80
2018-09-19T12:55:16.123Z,4.07
2018-09-19T12:57:45.263Z,7.57
2018-09-19T13:00:14.554Z,4.53
2018-09-19T13:02:43.894Z,8.30
2018-09-19T13:05:13.048Z,5.97
2018-09-19T13:07:42.149Z,6.63
2018-09-19T13:10:11.147Z,3.40
2018-09-19T13:12:40.166Z,5.13
2018-09-19T13:15:09.240Z,5.50
2018-09-19T13:17:38.357Z,5.40
2018-09-19T13:20:08.589Z,5.60
2018-09-19T13:22:37.628Z,10.33
2018-09-19T13:25:06.759Z,8.43
2018-09-19T13:27:35.814Z,3.90
2018-09-19T13:30:04.953Z,5.17
2018-09-19T13:32:34.025Z,3.73
2018-09-19T13:35:03.089Z,4.80
2018-09-19T13:37:32.187Z,3.50
2018-09-19T13:40:01.308Z,3.57
2018-09-19T13:42:30.524Z,8.90
2018-09-19T13:44:59.534Z,8.00
2018-09-19T13:47:28.715Z,5.83
2018-09-19T13:50:09.167Z,4.70
2018-09-19T13:52:38.235Z,6.80
2018-09-19T13:55:07.708Z,4.30
2018-09-19T13:57:36.794Z,5.10
2018-09-19T14:00:05.936Z,3.07
2018-09-19T14:02:34.965Z,4.47
2018-09-19T14:05:04.089Z,2.87
2018-09-19T14:07:33.097Z,3.40
2018-09-19T14:10:02.179Z,4.33
2018-09-19T14:12:31.252Z,6.43
2018-09-19T14:15:00.363Z,5.33
2018-09-19T14:17:29.451Z,11.67
2018-09-19T14:19:58.524Z,4.37
2018-09-19T14:22:27.671Z,3.70
2018-09-19T14:24:56.770Z,8.93
2018-09-19T14:27:25.776Z,12.67
2018-09-19T14:29:54.902Z,6.00
2018-09-19T14:32:23.940Z,5.27
2018-09-19T14:34:53.058Z,9.43
2018-09-19T14:37:22.136Z,15.20
2018-09-19T14:39:51.147Z,5.17
2018-09-19T14:42:20.263Z,3.60
2018-09-19T14:44:49.325Z,3.70
2018-09-19T14:47:18.530Z,6.63
2018-09-19T14:49:47.516Z,3.13
2018-09-19T14:52:16.512Z,11.37
2018-09-19T14:54:45.586Z,3.83
2018-09-19T14:57:14.700Z,10.77
2018-09-19T14:59:43.748Z,4.40
2018-09-19T15:02:13.438Z,2.90
2018-09-19T15:04:42.500Z,3.00
2018-09-19T15:07:11.544Z,6.90
2018-09-19T15:09:40.606Z,3.33
2018-09-19T15:12:09.858Z,3.60
2018-09-19T15:14:38.919Z,3.20
2018-09-19T15:17:08.030Z,4.10
2018-09-19T15:19:37.038Z,6.17
2018-09-19T15:22:06.060Z,10.57
2018-09-19T15:24:35.229Z,5.27
2018-09-19T15:27:04.238Z,4.00
2018-09-19T15:29:33.260Z,3.20
2018-09-19T15:32:02.367Z,3.03
2018-09-19T15:34:31.332Z,4.73
2018-09-19T15:37:00.368Z,3.10
2018-09-19T15:39:29.427Z,4.40
2018-09-19T15:41:58.551Z,9.63
2018-09-19T15:44:27.747Z,3.50
2018-09-19T15:46:58.069Z,3.40
2018-09-19T15:49:27.161Z,3.80
2018-09-19T15:51:56.332Z,4.67
2018-09-19T15:54:25.373Z,4.30
2018-09-19T15:56:54.389Z,3.40
2018-09-19T15:59:23.442Z,12.03
2018-09-19T16:01:52.399Z,3.20
2018-09-19T16:04:21.391Z,3.33
2018-09-19T16:06:50.468Z,3.40
2018-09-19T16:09:19.526Z,3.10
2018-09-19T16:11:48.623Z,3.70
2018-09-19T16:14:17.633Z,5.23
2018-09-19T16:16:46.648Z,3.97
2018-09-19T16:19:15.708Z,12.03
2018-09-19T16:21:44.699Z,5.07
2018-09-19T16:24:13.684Z,5.63
2018-09-19T16:26:42.779Z,3.90
2018-09-19T16:29:11.834Z,4.30
2018-09-19T16:31:40.951Z,3.37
2018-09-19T16:34:10.168Z,6.23
2018-09-19T16:36:39.383Z,4.53
2018-09-19T16:39:11.329Z,4.83
2018-09-19T16:41:40.640Z,3.63
2018-09-19T16:44:09.984Z,4.87
2018-09-19T16:46:39.787Z,3.83
2018-09-19T16:49:10.378Z,7.53
2018-09-19T16:51:39.780Z,3.83
2018-09-19T16:54:08.879Z,3.80
2018-09-19T16:56:38.003Z,4.20
2018-09-19T16:59:07.285Z,4.07
2018-09-19T17:01:36.374Z,3.90
2018-09-19T17:04:05.468Z,9.93
2018-09-19T17:06:34.601Z,8.23
2018-09-19T17:09:04.155Z,6.50
2018-09-19T17:11:33.213Z,5.00
2018-09-19T17:14:03.203Z,4.93
2018-09-19T17:16:32.508Z,4.20
2018-09-19T17:19:01.777Z,4.77
2018-09-19T17:21:30.774Z,8.47
2018-09-19T17:23:59.938Z,7.47
2018-09-19T17:26:29.029Z,4.50
2018-09-19T17:28:58.216Z,3.57
2018-09-19T17:31:27.272Z,3.67
2018-09-19T17:33:56.320Z,5.00
2018-09-19T17:36:25.454Z,8.50
2018-09-19T17:38:54.501Z,5.33
2018-09-19T17:41:23.590Z,5.00
2018-09-19T17:43:52.761Z,3.20
2018-09-19T17:46:21.956Z,4.00
2018-09-19T17:48:51.084Z,6.77
2018-09-19T17:51:20.275Z,3.93
2018-09-19T17:53:50.775Z,4.03
2018-09-19T17:56:20.012Z,6.00
2018-09-19T17:58:49.097Z,3.90
2018-09-19T18:01:18.261Z,3.03
2018-09-19T18:03:48.561Z,6.30
2018-09-19T18:06:18.010Z,6.60
2018-09-19T18:08:47.213Z,3.50
2018-09-19T18:11:16.565Z,8.40
2018-09-19T18:13:46.386Z,3.90
2018-09-19T18:16:15.811Z,3.17
2018-09-19T18:18:47.563Z,3.80
2018-09-19T18:21:17.713Z,6.10
2018-09-19T18:23:48.318Z,2.83
2018-09-19T18:26:20.465Z,7.90
2018-09-19T18:28:50.032Z,9.37
2018-09-19T18:31:19.559Z,5.90
2018-09-19T18:33:50.488Z,8.50
2018-09-19T18:36:19.836Z,8.27
2018-09-19T18:38:51.533Z,6.63
2018-09-19T18:41:25.920Z,6.73
2018-09-19T18:43:56.027Z,6.70
2018-09-19T18:46:33.075Z,5.27
2018-09-19T18:49:04.814Z,3.40
2018-09-19T18:51:42.509Z,4.27
2018-09-19T18:54:17.116Z,5.20
2018-09-19T18:56:55.809Z,5.30
2018-09-19T18:59:26.973Z,4.67
2018-09-19T19:01:57.645Z,9.53
2018-09-19T19:04:26.762Z,7.00
2018-09-19T19:06:56.598Z,4.40
2018-09-19T19:09:26.693Z,4.73
2018-09-19T19:11:56.848Z,12.17
2018-09-19T19:14:33.931Z,7.97
2018-09-19T19:17:04.514Z,4.57
2018-09-19T19:19:38.433Z,5.00
2018-09-19T19:22:07.686Z,6.53
2018-09-19T19:24:44.042Z,4.23
2018-09-19T19:27:14.560Z,7.47
2018-09-19T19:29:44.028Z,9.20
2018-09-19T19:32:13.328Z,5.70
2018-09-19T19:34:44.922Z,5.30
2018-09-19T19:37:14.441Z,9.07
2018-09-19T19:39:43.860Z,8.10
2018-09-19T19:42:14.342Z,7.73
2018-09-19T19:44:45.401Z,5.93
2018-09-19T19:47:16.108Z,5.57
2018-09-19T19:49:46.457Z,10.13
2018-09-19T19:52:17.365Z,8.73
2018-09-19T19:54:47.218Z,15.07
2018-09-19T19:57:18.154Z,18.23
2018-09-19T19:59:49.676Z,13.90
2018-09-19T20:02:19.786Z,4.07
2018-09-19T20:04:52.431Z,8.70
2018-09-19T20:07:22.362Z,5.90
2018-09-19T20:09:54.147Z,14.90
2018-09-19T20:12:27.358Z,6.17
2018-09-19T20:14:57.410Z,8.30
2018-09-19T20:17:31.549Z,3.50
2018-09-19T20:20:02.549Z,11.87
2018-09-19T20:22:31.895Z,9.53
2018-09-19T20:25:01.465Z,7.87
2018-09-19T20:27:30.911Z,5.63
2018-09-19T20:30:00.254Z,6.80
2018-09-19T20:32:29.854Z,7.60
2018-09-19T20:34:59.071Z,8.57
2018-09-19T20:37:28.191Z,4.20
2018-09-19T20:39:57.425Z,8.30
2018-09-19T20:42:26.651Z,9.27
2018-09-19T20:44:55.652Z,5.57
2018-09-19T20:47:24.731Z,7.20
2018-09-19T20:49:54.149Z,5.60
2018-09-19T20:52:23.280Z,7.63
2018-09-19T20:54:52.695Z,7.00
2018-09-19T20:57:21.800Z,5.00
2018-09-19T20:59:50.837Z,6.40
2018-09-19T21:02:19.846Z,14.73
2018-09-19T21:04:48.950Z,6.60
2018-09-19T21:07:18.146Z,7.23
2018-09-19T21:09:47.132Z,4.87
2018-09-19T21:12:16.169Z,8.13
2018-09-19T21:14:45.261Z,6.23
2018-09-19T21:17:14.305Z,6.60
2018-09-19T21:19:43.414Z,7.17
2018-09-19T21:22:12.543Z,4.57
2018-09-19T21:24:41.490Z,9.03
2018-09-19T21:27:10.462Z,6.70
2018-09-19T21:29:39.618Z,11.07
2018-09-19T21:32:08.657Z,5.03
2018-09-19T21:34:37.657Z,5.70
2018-09-19T21:37:06.664Z,5.97
2018-09-19T21:39:35.819Z,5.77
2018-09-19T21:42:04.790Z,4.10
2018-09-19T21:44:33.790Z,6.73
2018-09-19T21:47:03.523Z,15.60
2018-09-19T21:49:32.585Z,14.30
2018-09-19T21:52:01.583Z,3.83
2018-09-19T21:54:30.847Z,9.43
2018-09-19T21:56:59.913Z,4.23
2018-09-19T21:59:28.898Z,4.03
2018-09-19T22:01:59.802Z,9.50
2018-09-19T22:04:29.040Z,10.43
2018-09-19T22:06:58.021Z,6.43
2018-09-19T22:09:27.012Z,6.87
2018-09-19T22:11:55.974Z,6.00
2018-09-19T22:14:25.063Z,8.80
2018-09-19T22:16:54.075Z,13.00
2018-09-19T22:19:23.089Z,4.60
2018-09-19T22:21:52.471Z,11.93
2018-09-19T22:24:21.534Z,6.00
2018-09-19T22:26:50.553Z,8.73
2018-09-19T22:29:19.545Z,8.00
2018-09-19T22:31:48.622Z,5.53
2018-09-19T22:34:17.834Z,7.87
2018-09-19T22:36:47.347Z,13.57
2018-09-19T22:39:16.793Z,7.57
2018-09-19T22:41:46.147Z,9.20
2018-09-19T22:44:15.705Z,6.83
2018-09-19T22:46:45.170Z,5.70
2018-09-19T22:49:14.621Z,6.97
2018-09-19T22:51:43.998Z,8.23
2018-09-19T22:54:13.238Z,5.20
2018-09-19T22:56:42.596Z,8.00
2018-09-19T22:59:11.884Z,6.90
2018-09-19T23:01:41.310Z,8.80
2018-09-19T23:04:10.677Z,6.30
2018-09-19T23:06:39.990Z,6.00
2018-09-19T23:09:09.705Z,12.73
2018-09-19T23:11:39.303Z,5.00
2018-09-19T23:14:08.715Z,4.20
2018-09-19T23:16:38.041Z,4.90
2018-09-19T23:19:07.675Z,10.60
2018-09-19T23:21:36.867Z,7.63
2018-09-19T23:24:06.281Z,5.47
2018-09-19T23:26:35.891Z,7.70
2018-09-19T23:29:05.233Z,8.00
2018-09-19T23:31:34.779Z,9.80
2018-09-19T23:34:04.014Z,7.87
2018-09-19T23:36:33.330Z,10.97
2018-09-19T23:39:02.732Z,8.90
2018-09-19T23:41:32.139Z,10.80
2018-09-19T23:44:01.411Z,7.83
2018-09-19T23:46:31.207Z,6.60
2018-09-19T23:49:00.541Z,8.03
2018-09-19T23:51:30.115Z,5.93
2018-09-19T23:53:59.549Z,6.80
2018-09-19T23:56:28.708Z,9.37
2018-09-19T23:58:57.751Z,10.00
